Time;durP1;ratioP1;P1;durP2;ratioP2;P2;SDS_P1;SDS_P2;PMS_P1;PMS_P2;Temp;Humidity;BMP_temperature;BMP_pressure;BME280_temperature;BME280_humidity;BME280_pressure;Samples;Min_cycle;Max_cycle;Signal;HPM_P1;HPM_P2
2022/09/18 00:01:46;;;;;;;9.20;8.20;;;;;;;8.54;92.39;99172.80;84605;1330;22703;-69
2022/09/18 00:03:57;;;;;;;10.50;8.20;;;;;;;8.56;92.38;99169.55;84705;1327;22593;-69
2022/09/18 00:06:12;;;;;;;8.80;7.90;;;;;;;8.58;92.50;99173.30;84705;1329;22601;-69
2022/09/18 00:08:21;;;;;;;9.60;8.10;;;;;;;8.60;92.53;99174.41;84698;1329;25302;-70
2022/09/18 00:10:30;;;;;;;9.90;8.20;;;;;;;8.62;92.62;99173.13;84769;1329;22586;-69
2022/09/18 00:12:39;;;;;;;8.40;7.40;;;;;;;8.62;92.69;99172.58;84721;1327;24075;-70
2022/09/18 00:14:47;;;;;;;12.70;8.60;;;;;;;8.64;92.64;99172.67;84736;1326;23596;-70
2022/09/18 00:16:56;;;;;;;9.40;7.40;;;;;;;8.65;92.64;99171.58;84779;1324;22574;-69
2022/09/18 00:19:05;;;;;;;9.00;8.10;;;;;;;8.66;92.66;99170.82;84711;1326;22610;-69
2022/09/18 00:21:16;;;;;;;8.40;6.80;;;;;;;8.67;92.87;99170.77;84659;1324;22606;-67
2022/09/18 00:23:25;;;;;;;9.50;8.10;;;;;;;8.69;92.76;99170.70;84701;1327;23972;-70
2022/09/18 00:25:34;;;;;;;13.00;8.20;;;;;;;8.70;92.93;99176.00;84721;1330;22663;-69
2022/09/18 00:27:43;;;;;;;12.10;7.70;;;;;;;8.72;92.90;99176.08;84741;1329;22867;-70
2022/09/18 00:29:51;;;;;;;10.70;8.50;;;;;;;8.73;92.84;99177.27;84737;1327;22593;-71
2022/09/18 00:32:00;;;;;;;10.30;7.90;;;;;;;8.75;92.96;99180.11;84767;1330;22601;-70
2022/09/18 00:34:13;;;;;;;9.00;8.10;;;;;;;8.76;92.97;99180.22;84704;1327;22821;-69
2022/09/18 00:36:24;;;;;;;8.50;7.60;;;;;;;8.77;93.01;99179.13;84745;1321;22837;-70
2022/09/18 00:38:34;;;;;;;9.70;7.30;;;;;;;8.79;92.98;99178.02;84742;1327;23956;-69
2022/09/18 00:40:42;;;;;;;11.70;8.20;;;;;;;8.81;93.01;99180.17;84759;1327;24095;-69
2022/09/18 00:42:51;;;;;;;8.90;7.80;;;;;;;8.82;93.16;99177.86;84693;1330;24235;-70
2022/09/18 00:45:00;;;;;;;9.90;8.10;;;;;;;8.85;93.12;99180.13;84729;1327;22610;-70
2022/09/18 00:47:23;;;;;;;12.70;8.20;;;;;;;8.87;93.25;99178.81;84736;1327;25459;-70
2022/09/18 00:49:31;;;;;;;10.90;8.10;;;;;;;8.90;93.26;99173.94;84741;1323;24000;-70
2022/09/18 00:51:42;;;;;;;9.80;8.40;;;;;;;8.92;93.26;99177.70;84659;1330;22635;-70
2022/09/18 00:53:55;;;;;;;9.50;8.10;;;;;;;8.95;93.11;99178.74;84693;1325;22675;-70
2022/09/18 00:56:07;;;;;;;9.80;8.50;;;;;;;8.96;93.14;99182.69;84706;1327;23967;-69
2022/09/18 00:58:19;;;;;;;8.70;7.60;;;;;;;8.97;93.29;99183.52;84734;1327;22716;-69
2022/09/18 01:00:30;;;;;;;8.80;7.50;;;;;;;9.00;93.25;99183.20;84722;1327;25935;-70
2022/09/18 01:02:39;;;;;;;9.20;8.10;;;;;;;9.01;93.25;99182.45;84729;1329;23821;-70
2022/09/18 01:04:47;;;;;;;8.70;7.80;;;;;;;9.02;93.23;99182.40;84709;1327;25313;-70
2022/09/18 01:07:00;;;;;;;8.20;7.40;;;;;;;9.05;93.38;99184.67;84773;1327;22796;-69
2022/09/18 01:09:14;;;;;;;10.90;7.70;;;;;;;9.06;93.33;99184.80;84761;1327;22603;-70
2022/09/18 01:11:36;;;;;;;8.30;7.10;;;;;;;9.07;93.47;99188.77;84724;1328;23065;-69
2022/09/18 01:13:54;;;;;;;8.10;7.20;;;;;;;9.08;93.44;99187.84;84735;1325;22601;-69
2022/09/18 01:16:06;;;;;;;9.80;7.40;;;;;;;9.09;93.47;99188.48;84712;1327;22603;-69
2022/09/18 01:18:21;;;;;;;9.90;6.60;;;;;;;9.10;93.39;99185.63;84758;1327;22672;-69
2022/09/18 01:20:50;;;;;;;8.80;7.00;;;;;;;9.12;93.42;99184.18;84755;1327;22578;-69
2022/09/18 01:23:22;;;;;;;7.10;6.40;;;;;;;9.12;93.56;99180.48;84772;1327;25448;-69
2022/09/18 01:25:39;;;;;;;7.90;6.30;;;;;;;9.13;93.60;99176.26;84657;1328;25444;-69
2022/09/18 01:28:08;;;;;;;8.60;6.40;;;;;;;9.15;93.57;99175.12;84751;1325;22581;-69
2022/09/18 01:30:17;;;;;;;7.50;5.50;;;;;;;9.17;93.54;99178.00;84695;1328;22550;-69
2022/09/18 01:32:28;;;;;;;8.90;6.20;;;;;;;9.19;93.65;99178.92;84698;1330;22609;-69
2022/09/18 01:34:40;;;;;;;7.30;6.50;;;;;;;9.22;93.71;99175.14;84732;1327;22601;-69
2022/09/18 01:36:52;;;;;;;6.60;6.00;;;;;;;9.24;93.76;99176.94;84757;1327;24316;-69
2022/09/18 01:39:04;;;;;;;9.30;6.70;;;;;;;9.25;93.70;99172.70;84729;1327;22603;-70
2022/09/18 01:41:14;;;;;;;7.90;6.10;;;;;;;9.26;93.63;99174.05;84725;1327;22618;-69
2022/09/18 01:43:23;;;;;;;7.80;6.20;;;;;;;9.27;93.77;99175.38;84721;1327;23862;-68
2022/09/18 01:45:34;;;;;;;6.80;5.20;;;;;;;9.29;93.94;99173.33;84673;1328;25296;-68
2022/09/18 01:47:47;;;;;;;8.10;5.50;;;;;;;9.32;93.87;99174.45;84728;1327;23899;-69
2022/09/18 01:49:58;;;;;;;11.00;5.60;;;;;;;9.35;93.76;99172.02;84691;1327;22628;-70
2022/09/18 01:52:10;;;;;;;7.00;5.30;;;;;;;9.37;93.68;99170.71;84770;1327;22755;-70
2022/09/18 01:54:23;;;;;;;6.10;5.30;;;;;;;9.37;93.51;99167.22;84687;1327;24283;-69
2022/09/18 01:56:36;;;;;;;8.60;5.40;;;;;;;9.38;93.69;99168.21;84737;1327;22611;-70
2022/09/18 01:58:48;;;;;;;7.00;5.80;;;;;;;9.39;93.49;99166.09;84740;1323;23911;-71
2022/09/18 02:00:59;;;;;;;5.90;5.30;;;;;;;9.40;93.42;99160.10;84716;1327;23955;-70
2022/09/18 02:03:10;;;;;;;5.60;4.90;;;;;;;9.42;93.51;99160.52;84746;1326;22873;-69
2022/09/18 02:05:23;;;;;;;5.80;5.20;;;;;;;9.43;93.39;99155.58;84731;1328;25312;-68
2022/09/18 02:07:35;;;;;;;10.00;5.20;;;;;;;9.44;93.60;99156.22;84748;1327;22846;-69
2022/09/18 02:09:44;;;;;;;7.90;5.10;;;;;;;9.45;93.57;99150.23;84720;1325;22589;-69
2022/09/18 02:11:56;;;;;;;10.30;4.60;;;;;;;9.47;93.55;99153.48;84719;1329;25465;-70
2022/09/18 02:14:08;;;;;;;6.80;4.40;;;;;;;9.48;93.51;99147.98;84723;1327;22581;-70
2022/09/18 02:16:21;;;;;;;7.20;4.40;;;;;;;9.49;93.50;99148.09;84695;1328;25463;-70
2022/09/18 02:18:33;;;;;;;6.50;3.90;;;;;;;9.51;93.50;99143.48;84733;1327;25442;-70
2022/09/18 02:20:43;;;;;;;8.10;4.00;;;;;;;9.53;93.42;99142.50;84735;1327;22600;-70
2022/09/18 02:22:53;;;;;;;6.40;3.90;;;;;;;9.55;93.44;99142.55;84756;1327;22594;-70
2022/09/18 02:25:04;;;;;;;5.70;3.70;;;;;;;9.57;93.36;99147.17;84726;1328;25270;-70
2022/09/18 02:27:13;;;;;;;8.00;4.80;;;;;;;9.60;93.27;99147.39;84743;1327;22616;-70
2022/09/18 02:29:22;;;;;;;7.60;4.10;;;;;;;9.62;93.25;99149.71;84729;1327;23987;-68
2022/09/18 02:31:31;;;;;;;6.70;3.90;;;;;;;9.63;93.14;99147.94;84755;1327;22749;-70
2022/09/18 02:33:40;;;;;;;8.30;4.20;;;;;;;9.65;93.22;99146.91;84745;1327;22632;-70
2022/09/18 02:35:49;;;;;;;7.50;4.30;;;;;;;9.68;93.31;99143.81;84707;1330;22663;-71
2022/09/18 02:38:04;;;;;;;5.60;4.20;;;;;;;9.71;93.08;99142.97;84712;1331;24076;-70
2022/09/18 02:40:27;;;;;;;6.50;3.60;;;;;;;9.71;92.98;99145.04;84736;1328;22593;-71
2022/09/18 02:42:44;;;;;;;6.80;4.20;;;;;;;9.73;92.99;99142.67;84753;1327;22589;-70
2022/09/18 02:44:58;;;;;;;6.40;4.00;;;;;;;9.73;92.87;99140.59;84750;1328;22596;-71
2022/09/18 02:47:13;;;;;;;7.30;3.80;;;;;;;9.73;93.13;99141.77;84761;1321;22603;-70
2022/09/18 02:49:28;;;;;;;4.60;4.00;;;;;;;9.75;93.00;99139.23;84753;1327;22812;-70
2022/09/18 02:51:40;;;;;;;5.90;4.10;;;;;;;9.77;93.03;99136.36;84773;1329;22619;-69
2022/09/18 02:53:53;;;;;;;10.00;4.70;;;;;;;9.79;93.06;99139.69;84773;1328;22565;-70
2022/09/18 02:56:03;;;;;;;6.50;3.70;;;;;;;9.82;93.10;99140.59;84697;1327;22777;-71
2022/09/18 02:58:15;;;;;;;9.50;5.00;;;;;;;9.82;92.87;99136.05;84760;1327;22602;-69
2022/09/18 03:00:24;;;;;;;5.80;4.00;;;;;;;9.82;92.71;99135.52;84723;1327;22847;-70
2022/09/18 03:02:33;;;;;;;7.20;4.40;;;;;;;9.82;92.88;99129.63;84743;1327;22587;-69
2022/09/18 03:04:42;;;;;;;12.00;4.30;;;;;;;9.83;92.68;99127.10;84702;1326;22598;-69
2022/09/18 03:06:51;;;;;;;7.50;4.30;;;;;;;9.83;92.71;99125.01;84754;1323;22618;-70
2022/09/18 03:09:00;;;;;;;6.70;4.50;;;;;;;9.83;92.68;99122.04;84736;1327;25304;-70
2022/09/18 03:11:09;;;;;;;7.30;3.80;;;;;;;9.82;92.71;99119.84;84749;1324;22583;-70
2022/09/18 03:13:18;;;;;;;8.30;5.00;;;;;;;9.83;92.70;99117.90;84753;1327;25438;-70
2022/09/18 03:15:27;;;;;;;8.00;4.30;;;;;;;9.82;92.47;99120.23;84742;1326;24312;-70
2022/09/18 03:17:35;;;;;;;7.80;3.80;;;;;;;9.81;92.47;99120.29;84754;1326;22668;-69
2022/09/18 03:19:44;;;;;;;8.50;3.70;;;;;;;9.81;92.49;99119.23;84704;1329;22580;-69
2022/09/18 03:21:54;;;;;;;7.80;4.10;;;;;;;9.80;92.53;99118.38;84742;1326;22583;-69
2022/09/18 03:24:04;;;;;;;10.00;4.60;;;;;;;9.80;92.35;99116.14;84709;1330;22639;-68
2022/09/18 03:26:15;;;;;;;5.80;4.00;;;;;;;9.80;92.48;99111.80;84679;1328;22614;-68
2022/09/18 03:28:24;;;;;;;9.40;4.30;;;;;;;9.81;92.52;99111.72;84711;1329;22610;-69
2022/09/18 03:30:33;;;;;;;6.10;4.10;;;;;;;9.82;92.43;99108.91;84738;1324;22829;-70
2022/09/18 03:32:42;;;;;;;7.00;3.90;;;;;;;9.82;92.41;99112.58;84740;1326;24101;-68
2022/09/18 03:34:51;;;;;;;10.90;5.10;;;;;;;9.81;92.39;99111.36;84719;1326;22753;-69
2022/09/18 03:36:59;;;;;;;6.20;4.30;;;;;;;9.81;92.40;99116.77;84749;1326;22839;-66
2022/09/18 03:39:08;;;;;;;4.50;3.90;;;;;;;9.83;92.38;99114.41;84715;1328;22579;-69
2022/09/18 03:41:18;;;;;;;7.10;3.80;;;;;;;9.85;92.49;99119.73;84749;1328;24268;-69
2022/09/18 03:43:29;;;;;;;7.10;4.10;;;;;;;9.85;92.33;99121.83;84734;1326;22616;-69
2022/09/18 03:45:38;;;;;;;7.40;3.90;;;;;;;9.86;92.38;99124.02;84686;1327;22764;-69
2022/09/18 03:47:47;;;;;;;5.00;3.70;;;;;;;9.87;92.44;99124.64;84732;1324;22594;-67
2022/09/18 03:49:56;;;;;;;9.50;4.00;;;;;;;9.88;92.40;99130.20;84738;1326;22545;-69
2022/09/18 03:52:06;;;;;;;6.10;4.10;;;;;;;9.89;92.59;99132.70;84639;1330;22605;-69
2022/09/18 03:54:18;;;;;;;7.20;4.00;;;;;;;9.92;92.55;99134.85;84656;1324;22856;-69
2022/09/18 03:56:29;;;;;;;6.10;3.90;;;;;;;9.94;92.54;99140.14;84743;1327;23974;-69
2022/09/18 03:58:38;;;;;;;7.30;4.30;;;;;;;9.96;92.63;99139.48;84712;1326;22627;-71
2022/09/18 04:00:49;;;;;;;7.20;4.30;;;;;;;10.00;92.58;99143.45;84680;1327;22692;-70
2022/09/18 04:02:57;;;;;;;9.40;5.70;;;;;;;10.01;92.60;99149.66;84743;1329;25995;-69
2022/09/18 04:05:08;;;;;;;8.70;4.40;;;;;;;10.03;92.68;99149.34;84715;1326;22688;-69
2022/09/18 04:07:17;;;;;;;6.80;4.00;;;;;;;10.06;92.58;99150.77;84766;1330;22712;-69
2022/09/18 04:09:27;;;;;;;7.90;4.50;;;;;;;10.09;92.65;99153.04;84711;1329;22675;-67
2022/09/18 04:11:36;;;;;;;6.90;4.10;;;;;;;10.12;92.57;99149.75;84709;1325;22661;-69
2022/09/18 04:13:44;;;;;;;7.60;5.40;;;;;;;10.14;92.44;99155.36;84749;1323;24407;-70
2022/09/18 04:15:53;;;;;;;9.60;5.70;;;;;;;10.16;92.67;99152.35;84776;1328;22693;-71
2022/09/18 04:18:02;;;;;;;10.20;4.30;;;;;;;10.19;92.64;99150.75;84744;1322;22603;-68
2022/09/18 04:20:15;;;;;;;5.40;3.90;;;;;;;10.21;92.75;99152.73;84727;1327;22575;-67
2022/09/18 04:22:27;;;;;;;9.60;4.70;;;;;;;10.24;92.71;99155.20;84749;1328;22687;-70
2022/09/18 04:24:38;;;;;;;7.20;4.10;;;;;;;10.28;92.67;99154.98;84725;1326;24234;-70
2022/09/18 04:26:48;;;;;;;7.50;3.70;;;;;;;10.29;92.62;99152.98;84768;1327;25307;-69
2022/09/18 04:28:58;;;;;;;9.30;3.90;;;;;;;10.30;92.44;99154.85;84680;1330;25456;-69
2022/09/18 04:31:09;;;;;;;4.40;3.30;;;;;;;10.31;92.42;99155.69;84740;1327;22600;-69
2022/09/18 04:33:18;;;;;;;7.40;4.20;;;;;;;10.32;92.54;99153.86;84753;1328;24214;-69
2022/09/18 04:35:30;;;;;;;8.20;4.10;;;;;;;10.36;92.54;99155.64;84725;1329;22587;-68
2022/09/18 04:37:39;;;;;;;6.80;4.30;;;;;;;10.37;92.45;99154.68;84686;1327;25441;-69
2022/09/18 04:39:49;;;;;;;8.80;3.90;;;;;;;10.38;92.53;99153.41;84731;1327;22609;-69
2022/09/18 04:41:59;;;;;;;8.60;3.70;;;;;;;10.40;92.48;99156.22;84786;1326;22690;-69
2022/09/18 04:44:10;;;;;;;9.40;4.30;;;;;;;10.44;92.46;99157.94;84722;1326;25338;-68
2022/09/18 04:46:19;;;;;;;6.70;3.80;;;;;;;10.45;92.36;99157.55;84686;1329;22678;-69
2022/09/18 04:48:27;;;;;;;6.50;3.60;;;;;;;10.47;92.39;99158.80;84714;1327;24162;-69
2022/09/18 04:50:37;;;;;;;6.30;3.70;;;;;;;10.49;92.25;99156.42;84719;1327;22722;-69
2022/09/18 04:52:47;;;;;;;10.00;5.10;;;;;;;10.50;92.25;99157.58;84752;1327;22596;-68
2022/09/18 04:54:56;;;;;;;7.90;4.10;;;;;;;10.52;92.01;99155.54;84726;1327;22636;-71
2022/09/18 04:57:05;;;;;;;9.90;4.20;;;;;;;10.53;92.14;99153.90;84777;1330;22593;-69
2022/09/18 04:59:14;;;;;;;7.60;3.70;;;;;;;10.53;91.92;99150.23;84735;1326;24282;-69
2022/09/18 05:01:25;;;;;;;8.00;3.60;;;;;;;10.55;92.13;99154.34;84726;1326;22755;-67
2022/09/18 05:03:34;;;;;;;4.30;3.10;;;;;;;10.55;91.92;99149.96;84691;1329;22806;-69
2022/09/18 05:05:43;;;;;;;8.90;3.60;;;;;;;10.56;91.88;99149.01;84749;1327;23797;-69
2022/09/18 05:07:51;;;;;;;22.20;5.30;;;;;;;10.57;91.91;99148.27;84732;1327;22588;-70
2022/09/18 05:10:00;;;;;;;10.20;3.30;;;;;;;10.58;91.84;99148.92;84741;1327;24638;-70
2022/09/18 05:12:12;;;;;;;6.80;3.20;;;;;;;10.60;91.78;99149.17;84770;1329;22878;-69
2022/09/18 05:14:21;;;;;;;7.10;3.20;;;;;;;10.61;91.93;99151.02;84753;1327;24100;-68
2022/09/18 05:16:29;;;;;;;8.20;3.40;;;;;;;10.63;92.01;99150.92;84788;1327;24289;-69
2022/09/18 05:18:38;;;;;;;6.30;4.10;;;;;;;10.63;91.73;99150.20;84715;1329;22609;-70
2022/09/18 05:20:46;;;;;;;6.70;3.40;;;;;;;10.64;91.66;99150.67;84732;1327;25512;-71
2022/09/18 05:22:55;;;;;;;8.10;3.90;;;;;;;10.65;91.59;99149.23;84766;1327;22591;-70
2022/09/18 05:25:05;;;;;;;10.80;3.70;;;;;;;10.67;91.65;99149.23;84753;1327;22580;-70
2022/09/18 05:27:13;;;;;;;6.90;3.60;;;;;;;10.71;91.70;99153.43;84800;1330;24240;-70
2022/09/18 05:29:22;;;;;;;6.10;3.40;;;;;;;10.72;91.72;99153.69;84668;1330;22602;-70
2022/09/18 05:31:31;;;;;;;8.00;3.60;;;;;;;10.73;91.43;99152.04;84705;1330;22648;-68
2022/09/18 05:33:40;;;;;;;6.30;3.50;;;;;;;10.75;91.67;99156.48;84621;1325;24117;-69
2022/09/18 05:35:52;;;;;;;7.10;3.50;;;;;;;10.77;91.55;99157.42;84666;1332;22852;-69
2022/09/18 05:38:01;;;;;;;6.50;3.10;;;;;;;10.78;91.43;99159.08;84672;1332;22588;-69
2022/09/18 05:40:13;;;;;;;12.80;3.90;;;;;;;10.79;91.27;99157.66;84636;1330;22668;-70
2022/09/18 05:42:22;;;;;;;7.00;4.20;;;;;;;10.79;91.29;99159.89;84709;1329;22829;-71
2022/09/18 05:44:31;;;;;;;9.00;3.40;;;;;;;10.79;91.24;99161.29;84633;1330;24341;-68
2022/09/18 05:46:41;;;;;;;9.50;3.30;;;;;;;10.80;91.30;99159.85;84627;1333;23855;-69
2022/09/18 05:48:51;;;;;;;6.80;2.90;;;;;;;10.83;91.26;99160.21;84584;1325;22602;-70
2022/09/18 05:51:00;;;;;;;8.50;3.70;;;;;;;10.84;91.23;99159.98;84685;1331;22590;-70
2022/09/18 05:53:15;;;;;;;7.80;3.50;;;;;;;10.85;91.23;99161.63;84690;1326;22634;-68
2022/09/18 05:55:25;;;;;;;8.00;3.50;;;;;;;10.86;90.98;99156.20;84679;1325;22860;-67
2022/09/18 05:57:34;;;;;;;7.50;3.90;;;;;;;10.88;90.95;99155.92;84534;1333;22576;-69
2022/09/18 05:59:43;;;;;;;9.40;4.20;;;;;;;10.88;90.84;99158.54;84653;1328;22641;-69
2022/09/18 06:01:52;;;;;;;6.80;3.70;;;;;;;10.88;90.77;99159.91;84698;1330;22610;-70
2022/09/18 06:04:01;;;;;;;7.60;4.20;;;;;;;10.89;90.81;99162.67;84629;1333;25430;-70
2022/09/18 06:06:11;;;;;;;10.20;4.70;;;;;;;10.91;90.74;99159.61;84682;1330;22574;-70
2022/09/18 06:08:20;;;;;;;9.50;4.10;;;;;;;10.92;90.77;99161.63;84656;1332;22696;-70
2022/09/18 06:10:29;;;;;;;13.90;5.40;;;;;;;10.93;90.68;99162.05;84667;1330;24283;-70
2022/09/18 06:12:40;;;;;;;10.10;4.10;;;;;;;10.95;90.81;99161.09;84327;1330;448927;-68
2022/09/18 06:14:49;;;;;;;8.80;4.40;;;;;;;10.97;90.68;99163.02;84628;1331;22849;-70
2022/09/18 06:16:59;;;;;;;6.30;3.90;;;;;;;11.01;90.63;99164.23;84705;1329;22608;-70
2022/09/18 06:19:10;;;;;;;8.00;3.90;;;;;;;11.03;90.39;99167.08;84621;1330;22656;-70
2022/09/18 06:21:19;;;;;;;8.70;4.30;;;;;;;11.03;90.36;99167.02;84543;1335;25929;-70
2022/09/18 06:23:31;;;;;;;8.90;4.10;;;;;;;11.05;90.28;99166.20;84693;1332;22621;-69
2022/09/18 06:25:40;;;;;;;8.00;3.70;;;;;;;11.06;90.11;99166.50;84683;1329;22596;-70
2022/09/18 06:27:57;;;;;;;6.40;3.90;;;;;;;11.07;90.09;99167.30;84647;1330;24106;-69
2022/09/18 06:30:08;;;;;;;7.30;4.30;;;;;;;11.09;90.07;99167.38;84663;1331;24217;-69
2022/09/18 06:32:18;;;;;;;9.00;3.90;;;;;;;11.11;89.96;99168.52;84684;1328;25436;-70
2022/09/18 06:34:29;;;;;;;5.60;3.70;;;;;;;11.12;89.68;99167.02;84660;1330;22634;-70
2022/09/18 06:36:39;;;;;;;8.30;4.70;;;;;;;11.13;89.64;99168.73;84690;1330;22890;-70
2022/09/18 06:38:52;;;;;;;9.40;3.80;;;;;;;11.14;89.50;99166.77;84584;1327;22611;-70
2022/09/18 06:41:02;;;;;;;9.70;3.90;;;;;;;11.16;89.33;99168.05;84676;1330;22608;-70
2022/09/18 06:43:14;;;;;;;6.70;3.80;;;;;;;11.17;89.17;99165.32;84701;1332;25444;-69
2022/09/18 06:45:22;;;;;;;12.40;5.10;;;;;;;11.17;89.03;99167.29;84665;1330;22620;-70
2022/09/18 06:47:31;;;;;;;5.00;3.20;;;;;;;11.18;88.79;99172.29;84691;1330;22792;-72
2022/09/18 06:49:40;;;;;;;6.60;3.60;;;;;;;11.18;88.73;99171.58;84623;1329;24346;-71
2022/09/18 06:51:49;;;;;;;5.80;4.10;;;;;;;11.16;88.49;99172.70;84681;1330;22890;-70
2022/09/18 06:53:58;;;;;;;6.00;3.20;;;;;;;11.17;88.58;99170.09;84706;1332;22611;-70
2022/09/18 06:56:07;;;;;;;4.00;3.00;;;;;;;11.16;88.50;99175.85;84707;1332;22653;-70
2022/09/18 06:58:16;;;;;;;4.80;2.40;;;;;;;11.19;88.39;99175.73;84705;1329;22589;-69
2022/09/18 07:00:25;;;;;;;5.20;3.00;;;;;;;11.21;88.38;99175.43;84648;1330;22952;-69
2022/09/18 07:02:34;;;;;;;7.00;3.80;;;;;;;11.21;87.96;99175.60;84705;1330;22650;-71
2022/09/18 07:04:42;;;;;;;4.70;3.00;;;;;;;11.19;87.79;99175.52;84702;1329;22601;-71
2022/09/18 07:06:51;;;;;;;5.00;3.10;;;;;;;11.19;87.62;99178.65;84613;1330;25326;-70
2022/09/18 07:09:00;;;;;;;5.70;3.20;;;;;;;11.18;87.41;99180.98;84550;1333;22603;-71
2022/09/18 07:11:12;;;;;;;6.10;3.90;;;;;;;11.18;87.61;99183.98;84675;1332;23811;-71
2022/09/18 07:13:24;;;;;;;3.50;2.90;;;;;;;11.21;87.88;99185.19;84571;1332;24691;-70
2022/09/18 07:15:41;;;;;;;3.50;3.20;;;;;;;11.22;87.54;99186.70;84615;1330;22617;-69
2022/09/18 07:17:59;;;;;;;4.30;2.50;;;;;;;11.23;87.58;99185.77;84676;1332;22645;-68
2022/09/18 07:20:06;;;;;;;;;;;;;;;11.24;87.29;99185.20;84693;1330;25413;-70
2022/09/18 07:22:21;;;;;;;4.90;2.60;;;;;;;11.24;87.31;99185.39;84660;1330;22632;-71
2022/09/18 07:24:30;;;;;;;5.60;2.60;;;;;;;11.25;87.29;99189.48;84583;1330;22595;-70
2022/09/18 07:26:39;;;;;;;4.30;2.10;;;;;;;11.26;86.95;99189.79;84719;1329;25328;-70
2022/09/18 07:28:48;;;;;;;2.50;2.00;;;;;;;11.26;86.94;99193.42;84647;1329;22582;-70
2022/09/18 07:30:57;;;;;;;5.30;1.60;;;;;;;11.28;86.74;99192.98;84701;1330;22619;-71
2022/09/18 07:33:06;;;;;;;3.90;2.70;;;;;;;11.28;86.28;99194.02;84644;1333;24361;-71
2022/09/18 07:35:15;;;;;;;4.40;2.00;;;;;;;11.31;86.35;99197.02;84694;1330;22599;-71
2022/09/18 07:37:24;;;;;;;5.80;1.70;;;;;;;11.35;86.66;99195.13;84691;1330;22641;-70
2022/09/18 07:39:32;;;;;;;4.90;2.10;;;;;;;11.40;86.21;99194.92;84670;1329;22666;-69
2022/09/18 07:41:42;;;;;;;4.10;1.70;;;;;;;11.43;86.24;99197.86;84641;1330;22868;-69
2022/09/18 07:43:53;;;;;;;2.80;1.90;;;;;;;11.48;86.08;99200.33;84630;1333;22583;-69
2022/09/18 07:46:02;;;;;;;4.10;2.00;;;;;;;11.53;85.87;99203.85;84660;1329;22609;-70
2022/09/18 07:48:11;;;;;;;8.30;2.20;;;;;;;11.61;85.83;99205.32;84670;1330;22591;-69
2022/09/18 07:50:21;;;;;;;4.10;2.20;;;;;;;11.66;85.47;99205.00;84685;1332;22725;-70
2022/09/18 07:52:28;;;;;;;;;;;;;;;11.70;85.37;99206.65;84746;1332;22592;-68
2022/09/18 07:54:38;;;;;;;7.80;2.90;;;;;;;11.73;85.28;99206.80;84678;1332;22602;-71
2022/09/18 07:56:46;;;;;;;3.60;2.40;;;;;;;11.79;84.82;99206.66;84700;1330;22674;-71
2022/09/18 07:59:02;;;;;;;4.80;2.20;;;;;;;11.81;84.52;99210.86;84593;1330;22640;-69
2022/09/18 08:01:13;;;;;;;3.20;2.80;;;;;;;11.80;83.96;99210.10;84603;1333;25470;-71
2022/09/18 08:03:24;;;;;;;4.60;2.10;;;;;;;11.80;83.82;99214.43;84635;1331;25450;-70
2022/09/18 08:05:31;;;;;;;;;;;;;;;11.81;83.64;99214.73;84560;1332;22851;-69
2022/09/18 08:07:41;;;;;;;3.50;1.90;;;;;;;11.82;83.60;99215.57;84581;1331;23849;-71
2022/09/18 08:09:50;;;;;;;2.70;2.20;;;;;;;11.87;83.77;99214.71;84551;1333;22700;-71
2022/09/18 08:11:59;;;;;;;3.70;2.60;;;;;;;11.93;83.38;99213.00;84665;1333;22668;-70
2022/09/18 08:14:09;;;;;;;4.80;2.20;;;;;;;12.01;83.39;99212.48;84570;1331;24052;-69
2022/09/18 08:16:20;;;;;;;3.50;2.40;;;;;;;12.10;83.44;99211.75;84587;1330;22562;-67
2022/09/18 08:18:27;;;;;;;;;;;;;;;12.18;83.20;99210.55;84543;1330;24281;-69
2022/09/18 08:20:36;;;;;;;6.30;1.90;;;;;;;12.22;82.88;99206.77;84565;1329;22631;-71
2022/09/18 08:22:45;;;;;;;4.90;2.70;;;;;;;12.29;82.69;99205.48;84670;1330;22561;-69
2022/09/18 08:24:57;;;;;;;3.20;2.00;;;;;;;12.35;82.11;99201.61;84632;1331;22600;-69
2022/09/18 08:27:07;;;;;;;3.80;2.20;;;;;;;12.40;81.80;99204.27;84581;1329;24274;-70
2022/09/18 08:29:19;;;;;;;4.80;2.20;;;;;;;12.49;82.13;99203.13;84644;1330;22878;-68
2022/09/18 08:31:32;;;;;;;4.10;2.50;;;;;;;12.56;81.46;99202.34;84609;1332;23865;-69
2022/09/18 08:33:41;;;;;;;3.40;2.30;;;;;;;12.61;81.31;99203.26;84616;1329;24222;-70
2022/09/18 08:35:54;;;;;;;4.90;2.40;;;;;;;12.66;81.01;99202.02;84616;1329;24812;-73
2022/09/18 08:38:06;;;;;;;3.50;2.00;;;;;;;12.72;80.92;99203.55;84611;1330;22596;-72
2022/09/18 08:40:18;;;;;;;4.20;2.00;;;;;;;12.79;80.82;99203.08;84631;1329;24000;-68
2022/09/18 08:42:32;;;;;;;3.70;1.80;;;;;;;12.86;80.54;99198.63;84650;1333;22588;-71
2022/09/18 08:44:48;;;;;;;3.40;1.70;;;;;;;12.95;80.37;99201.92;84560;1323;22661;-71
2022/09/18 08:47:01;;;;;;;2.30;1.80;;;;;;;13.05;80.72;99200.69;84607;1330;22594;-71
2022/09/18 08:49:24;;;;;;;4.40;2.10;;;;;;;13.18;80.24;99198.94;84618;1329;22611;-71
2022/09/18 08:51:37;;;;;;;4.60;1.80;;;;;;;13.29;79.99;99201.02;84645;1330;22602;-71
2022/09/18 08:53:49;;;;;;;6.50;2.40;;;;;;;13.40;79.72;99199.89;84615;1331;22652;-71
2022/09/18 08:56:02;;;;;;;2.10;1.60;;;;;;;13.50;79.49;99196.11;84618;1333;22597;-71
2022/09/18 08:58:13;;;;;;;5.40;1.90;;;;;;;13.53;79.07;99196.92;84634;1330;22598;-70
2022/09/18 09:00:30;;;;;;;3.50;2.30;;;;;;;13.58;79.13;99191.83;84690;1326;24113;-70
2022/09/18 09:02:53;;;;;;;3.20;2.30;;;;;;;13.65;78.78;99191.92;84709;1331;22695;-69
2022/09/18 09:05:09;;;;;;;6.60;3.00;;;;;;;13.67;78.51;99192.05;84668;1329;22619;-69
2022/09/18 09:07:36;;;;;;;3.50;2.00;;;;;;;13.74;78.68;99189.36;84697;1328;22600;-71
2022/09/18 09:10:06;;;;;;;5.90;1.80;;;;;;;13.84;78.62;99185.63;84676;1331;24300;-72
2022/09/18 09:12:25;;;;;;;4.00;1.60;;;;;;;14.00;78.11;99187.34;84699;1330;24067;-71
2022/09/18 09:14:43;;;;;;;3.30;1.40;;;;;;;14.15;78.07;99187.19;84671;1328;22581;-71
2022/09/18 09:16:55;;;;;;;4.40;2.10;;;;;;;14.37;77.72;99188.15;84711;1330;22569;-71
2022/09/18 09:19:08;;;;;;;4.60;2.10;;;;;;;14.53;77.14;99184.25;84690;1332;22844;-70
2022/09/18 09:21:24;;;;;;;3.50;2.20;;;;;;;15.08;78.50;99184.19;84647;1330;23244;-70
2022/09/18 09:23:45;;;;;;;2.70;1.70;;;;;;;15.58;76.98;99188.77;84680;1328;24009;-70
2022/09/18 09:26:04;;;;;;;3.70;2.30;;;;;;;15.87;73.99;99186.54;84623;1329;22729;-70
2022/09/18 09:28:18;;;;;;;3.60;1.90;;;;;;;16.07;73.68;99183.92;84639;1330;22881;-69
2022/09/18 09:30:29;;;;;;;3.60;2.00;;;;;;;16.42;72.94;99178.98;84630;1330;22718;-70
2022/09/18 09:32:42;;;;;;;2.70;1.50;;;;;;;16.75;71.91;99173.09;84729;1330;22632;-69
2022/09/18 09:34:53;;;;;;;3.70;1.30;;;;;;;16.87;70.03;99172.80;84732;1332;23971;-72
2022/09/18 09:37:04;;;;;;;3.90;1.70;;;;;;;16.94;69.50;99178.23;84704;1330;22598;-71
2022/09/18 09:39:18;;;;;;;2.60;1.50;;;;;;;17.00;68.53;99177.02;84607;1330;22622;-71
2022/09/18 09:41:33;;;;;;;1.70;1.00;;;;;;;17.10;68.70;99179.59;84740;1332;22608;-70
2022/09/18 09:43:45;;;;;;;2.60;1.80;;;;;;;17.31;68.38;99183.77;84584;1333;26029;-71
2022/09/18 09:45:55;;;;;;;1.20;1.10;;;;;;;17.45;66.95;99180.58;84653;1330;24004;-71
2022/09/18 09:48:13;;;;;;;3.40;1.50;;;;;;;17.55;66.61;99183.48;84644;1330;24086;-72
2022/09/18 09:50:40;;;;;;;3.90;1.90;;;;;;;17.74;66.62;99180.79;84653;1327;22586;-72
2022/09/18 09:52:53;;;;;;;2.90;1.30;;;;;;;17.88;66.07;99187.18;84712;1329;24222;-71
2022/09/18 09:55:16;;;;;;;3.60;2.00;;;;;;;17.97;65.23;99189.05;84704;1330;23903;-69
2022/09/18 09:57:32;;;;;;;4.10;1.60;;;;;;;18.02;64.69;99187.58;84707;1332;22785;-70
2022/09/18 09:59:48;;;;;;;4.50;1.80;;;;;;;18.08;64.38;99191.25;84666;1328;22862;-72
2022/09/18 10:02:39;;;;;;;5.10;1.90;;;;;;;18.15;64.17;99191.41;84571;1332;25431;-71
2022/09/18 10:05:02;;;;;;;3.40;1.80;;;;;;;18.10;62.20;99191.77;84772;1329;22587;-74
2022/09/18 10:07:20;;;;;;;2.30;1.40;;;;;;;18.01;62.28;99192.03;84745;1321;22589;-74
2022/09/18 10:09:40;;;;;;;3.40;1.60;;;;;;;17.92;61.86;99197.60;84631;1333;24308;-74
2022/09/18 10:11:58;;;;;;;2.90;1.00;;;;;;;17.82;61.47;99198.11;84761;1328;22614;-73
2022/09/18 10:14:15;;;;;;;3.00;2.20;;;;;;;17.71;61.74;99200.08;84683;1330;22668;-74
2022/09/18 10:16:26;;;;;;;4.40;2.50;;;;;;;17.63;61.53;99196.35;84684;1329;22649;-74
2022/09/18 10:18:38;;;;;;;6.30;2.30;;;;;;;17.54;61.89;99203.33;84670;1330;22619;-74
2022/09/18 10:20:47;;;;;;;5.40;2.60;;;;;;;17.46;61.27;99205.02;84652;1332;25049;-70
2022/09/18 10:22:57;;;;;;;3.60;2.20;;;;;;;17.40;61.54;99210.19;84686;1329;22750;-70